Two — ZGBX2 — position and weather

sailwx.info

Track history (hours):
 
Tides and Currents Weather Stations Pressure Air Temp Water Temp Dewpoint Dewpoint Depression Visibility Wind Speed Wind Dir Waves Ship Positions

Two

Last reported at 2017-Dec-07 19:06 UTC. Time now 2017-Dec-15 10:24 UTC.
Position N 26°06' W 080°08'.

Length 23 m.

Type: Sailing vessel. MMSI: 319039100.

Date/timePositionNaut miles runAvg speedWind from/ knotsBaromVisibWave heightAir tempDewpointWater temp
2017-Dec-07 19:06N 26°06' W 080°08'0 0.0
2017-Dec-07 18:51N 26°06' W 080°08'1 1.7
2017-Dec-07 18:30N 26°06' W 080°07'3 5.5
2017-Dec-07 17:57N 26°08' W 080°05'510.1
2017-Dec-07 17:25N 26°14' W 080°04'5 9.9
2017-Dec-07 16:55N 26°19' W 080°04'5 9.0
2017-Dec-07 16:25N 26°23' W 080°03'5 8.6
2017-Dec-07 15:52N 26°28' W 080°03'6 8.5
2017-Dec-07 15:09N 26°34' W 080°02'1 8.8
2017-Dec-07 15:00N 26°35' W 080°02'4 8.7
2017-Dec-07 14:30N 26°39' W 080°01'5 9.0
2017-Dec-07 14:00N 26°44' W 080°01'2 4.0
2017-Dec-07 13:30N 26°46' W 080°03'1 1.5
2017-Dec-07 13:00N 26°45' W 080°03'0 0.0
2017-Dec-07 12:30N 26°45' W 080°03'0 0.0
2017-Dec-07 12:00N 26°45' W 080°03'0 0.0
2017-Dec-07 11:30N 26°45' W 080°03'0 0.0
2017-Dec-07 11:00N 26°45' W 080°03'0 0.0
2017-Dec-07 10:30N 26°45' W 080°03'0 0.0
2017-Dec-07 10:00N 26°45' W 080°03'0 0.0
2017-Dec-07 09:30N 26°45' W 080°03'0 0.0
2017-Dec-07 09:00N 26°45' W 080°03'0 0.0
2017-Dec-07 08:30N 26°45' W 080°03'0 0.0
2017-Dec-07 08:00N 26°45' W 080°03'0 0.0
2017-Dec-07 07:30N 26°45' W 080°03'0 0.0
2017-Dec-07 07:00N 26°45' W 080°03'0 0.0
2017-Dec-07 06:30N 26°45' W 080°03'0 0.0
2017-Dec-07 06:00N 26°45' W 080°03'0 0.0
2017-Dec-07 05:30N 26°45' W 080°03'0 0.0
2017-Dec-07 05:00N 26°45' W 080°03'0 0.0
2017-Dec-07 04:30N 26°45' W 080°03'0 0.0
2017-Dec-07 04:00N 26°45' W 080°03'0 0.0
2017-Dec-07 03:30N 26°45' W 080°03'0 0.0
2017-Dec-07 03:00N 26°45' W 080°03'0 0.0
2017-Dec-07 02:27N 26°45' W 080°03'0 0.0
2017-Dec-07 02:00N 26°45' W 080°03'0 0.0
2017-Dec-07 01:30N 26°45' W 080°03'0 0.0
2017-Dec-07 01:00N 26°45' W 080°03'0 0.0
2017-Dec-07 00:30N 26°45' W 080°03'0 0.0
2017-Dec-07 00:00N 26°45' W 080°03'0 0.0
2017-Dec-06 23:30N 26°45' W 080°03'0 0.0
2017-Dec-06 23:00N 26°45' W 080°03'0 0.0
2017-Dec-06 22:30N 26°45' W 080°03'0 0.0
2017-Dec-06 22:00N 26°45' W 080°03'0 0.0
2017-Dec-06 21:30N 26°45' W 080°03'0 0.0
2017-Dec-06 21:00N 26°45' W 080°03'  
2017-Dec-04 10:24N 26°06' W 080°08'0 0.0
2017-Dec-04 09:57N 26°06' W 080°08'0 0.0
2017-Dec-04 09:24N 26°06' W 080°08'0 0.0
2017-Dec-04 08:57N 26°06' W 080°08'0 0.0
2017-Dec-04 08:27N 26°06' W 080°08'0 0.0
2017-Dec-04 07:57N 26°06' W 080°08'0 0.0
2017-Dec-04 07:27N 26°06' W 080°08'0 0.0
2017-Dec-04 07:00N 26°06' W 080°08'0 0.0
2017-Dec-04 06:30N 26°06' W 080°08'0 0.0
2017-Dec-04 06:00N 26°06' W 080°08'0 0.0
2017-Dec-04 05:30N 26°06' W 080°08'0 0.0
2017-Dec-04 05:00N 26°06' W 080°08'0 0.0
2017-Dec-04 04:30N 26°06' W 080°08'0 0.0
2017-Dec-04 04:00N 26°06' W 080°08'0 0.0
2017-Dec-04 03:30N 26°06' W 080°08'0 0.0
2017-Dec-04 03:00N 26°06' W 080°08'0 0.0
2017-Dec-04 02:30N 26°06' W 080°08'0 0.0
2017-Dec-04 02:00N 26°06' W 080°08'0 0.0
2017-Dec-04 01:30N 26°06' W 080°08'0 0.0
2017-Dec-04 00:51N 26°06' W 080°08'0 0.0
2017-Dec-04 00:21N 26°06' W 080°08'0 0.0
2017-Dec-03 23:54N 26°06' W 080°08'0 0.0
2017-Dec-03 23:24N 26°06' W 080°08'0 0.0
2017-Dec-03 22:54N 26°06' W 080°08'0 0.0
2017-Dec-03 22:24N 26°06' W 080°08'0 0.0
2017-Dec-03 21:54N 26°06' W 080°08'0 0.0
2017-Dec-03 21:24N 26°06' W 080°08'0 0.0
2017-Dec-03 20:57N 26°06' W 080°08'0 0.0
2017-Dec-03 20:27N 26°06' W 080°08'0 0.0
2017-Dec-03 19:57N 26°06' W 080°08'0 0.0
2017-Dec-03 19:27N 26°06' W 080°08'0 0.0
2017-Dec-03 18:57N 26°06' W 080°08'0 0.0
2017-Dec-03 18:30N 26°06' W 080°08'0 0.0
2017-Dec-03 18:00N 26°06' W 080°08'0 0.0
2017-Dec-03 17:30N 26°06' W 080°08'0 0.0
2017-Dec-03 17:00N 26°06' W 080°08'0 0.0
2017-Dec-03 16:30N 26°06' W 080°08'0 0.0
2017-Dec-03 16:00N 26°06' W 080°08'0 0.0
2017-Dec-03 15:30N 26°06' W 080°08'0 0.0
2017-Dec-03 15:00N 26°06' W 080°08'0 0.0
2017-Dec-03 14:30N 26°06' W 080°08'0 0.0
2017-Dec-03 13:51N 26°06' W 080°08'0 0.0
2017-Dec-03 13:30N 26°06' W 080°08'0 0.0
2017-Dec-03 12:51N 26°06' W 080°08'0 0.0
2017-Dec-03 12:21N 26°06' W 080°08'0 0.0
2017-Dec-03 11:51N 26°06' W 080°08'0 0.0
2017-Dec-03 11:25N 26°06' W 080°08'0 0.0
2017-Dec-03 10:55N 26°06' W 080°08'0 0.0
2017-Dec-03 10:25N 26°06' W 080°08'0 0.0
2017-Dec-03 09:55N 26°06' W 080°08'0 0.0
2017-Dec-03 09:25N 26°06' W 080°08'0 0.0
2017-Dec-03 08:58N 26°06' W 080°08'0 0.0
2017-Dec-03 08:28N 26°06' W 080°08'0 0.0
2017-Dec-03 07:58N 26°06' W 080°08'0 0.0
2017-Dec-03 07:28N 26°06' W 080°08'0 0.0
2017-Dec-03 06:58N 26°06' W 080°08'0 0.0
2017-Dec-03 06:28N 26°06' W 080°08'0 0.0
2017-Dec-03 05:58N 26°06' W 080°08'0 0.0
2017-Dec-03 05:16N 26°06' W 080°08'0 0.0
2017-Dec-03 04:58N 26°06' W 080°08'0 0.0
2017-Dec-03 04:28N 26°06' W 080°08'0 0.0
2017-Dec-03 03:58N 26°06' W 080°08'0 0.0
2017-Dec-03 03:28N 26°06' W 080°08'0 0.0
2017-Dec-03 02:49N 26°06' W 080°08'0 0.0
2017-Dec-03 02:19N 26°06' W 080°08'0 0.0
2017-Dec-03 01:52N 26°06' W 080°08'0 0.0
2017-Dec-03 01:22N 26°06' W 080°08'0 0.0
2017-Dec-03 00:52N 26°06' W 080°08'0 0.0
2017-Dec-03 00:22N 26°06' W 080°08'0 0.0
2017-Dec-02 23:52N 26°06' W 080°08'0 0.0
2017-Dec-02 22:25N 26°06' W 080°08'0 0.0
2017-Dec-02 21:55N 26°06' W 080°08'0 0.0
2017-Dec-02 21:25N 26°06' W 080°08'0 0.0
2017-Dec-02 20:58N 26°06' W 080°08'0 0.0
2017-Dec-02 20:28N 26°06' W 080°08'0 0.0
2017-Dec-02 19:58N 26°06' W 080°08'0 0.0
2017-Dec-02 19:25N 26°06' W 080°08'0 0.0
2017-Dec-02 18:58N 26°06' W 080°08'0 0.6
2017-Dec-02 18:28N 26°06' W 080°08'0 0.6
2017-Dec-02 17:55N 26°06' W 080°08'0 0.0
2017-Dec-02 17:28N 26°06' W 080°08'0 0.0
2017-Dec-02 16:58N 26°06' W 080°08'0 0.0
2017-Dec-02 16:28N 26°06' W 080°08'0 0.0
2017-Dec-02 15:58N 26°06' W 080°08'0 0.0
2017-Dec-02 15:28N 26°06' W 080°08'0 0.0
2017-Dec-02 14:58N 26°06' W 080°08'0 0.0
2017-Dec-02 14:19N 26°06' W 080°08'0 0.0
2017-Dec-02 13:49N 26°06' W 080°08'0 0.0
2017-Dec-02 13:22N 26°06' W 080°08'0 0.0
2017-Dec-02 12:52N 26°06' W 080°08'0 0.0
2017-Dec-02 12:22N 26°06' W 080°08'0 0.0
2017-Dec-02 11:52N 26°06' W 080°08'0 0.0
2017-Dec-02 11:22N 26°06' W 080°08'0 0.0
2017-Dec-02 10:55N 26°06' W 080°08'0 0.0
2017-Dec-02 10:22N 26°06' W 080°08'0 0.0
2017-Dec-02 09:55N 26°06' W 080°08'0 0.0
2017-Dec-02 09:25N 26°06' W 080°08'0 0.0
2017-Dec-02 08:55N 26°06' W 080°08'0 0.0
2017-Dec-02 08:28N 26°06' W 080°08'0 0.0
2017-Dec-02 07:52N 26°06' W 080°08'0 0.0
2017-Dec-02 07:28N 26°06' W 080°08'0 0.0
2017-Dec-02 06:58N 26°06' W 080°08'0 0.0
2017-Dec-02 06:28N 26°06' W 080°08'0 0.0
2017-Dec-02 05:58N 26°06' W 080°08'0 0.0
2017-Dec-02 05:28N 26°06' W 080°08'0 0.0
2017-Dec-02 04:58N 26°06' W 080°08'0 0.0
2017-Dec-02 04:28N 26°06' W 080°08'0 0.0
2017-Dec-02 03:58N 26°06' W 080°08'0 0.0
2017-Dec-02 03:28N 26°06' W 080°08'0 0.0
2017-Dec-02 02:49N 26°06' W 080°08'0 0.0
2017-Dec-02 02:19N 26°06' W 080°08'0 0.0
2017-Dec-02 01:49N 26°06' W 080°08'0 0.0
2017-Dec-02 01:22N 26°06' W 080°08'0 0.0
2017-Dec-02 00:52N 26°06' W 080°08'0 0.0
2017-Dec-02 00:22N 26°06' W 080°08'0 0.0
2017-Dec-01 23:52N 26°06' W 080°08'0 0.0
2017-Dec-01 23:22N 26°06' W 080°08'0 0.0
2017-Dec-01 22:55N 26°06' W 080°08'0 0.0
2017-Dec-01 22:25N 26°06' W 080°08'0 0.0
2017-Dec-01 21:55N 26°06' W 080°08'0 0.0
2017-Dec-01 21:25N 26°06' W 080°08'0 0.0
2017-Dec-01 20:55N 26°06' W 080°08'0 0.0
2017-Dec-01 20:28N 26°06' W 080°08'0 0.0
2017-Dec-01 19:58N 26°06' W 080°08'0 0.0
2017-Dec-01 19:28N 26°06' W 080°08'0 0.0
2017-Dec-01 18:58N 26°06' W 080°08'0 0.0
2017-Dec-01 18:28N 26°06' W 080°08'0 0.0
2017-Dec-01 17:58N 26°06' W 080°08'0 0.0
2017-Dec-01 17:25N 26°06' W 080°08'0 0.0
2017-Dec-01 16:58N 26°06' W 080°08'0 0.0
2017-Dec-01 16:28N 26°06' W 080°08'0 0.0
2017-Dec-01 15:46N 26°06' W 080°08'0 0.0
2017-Dec-01 15:28N 26°06' W 080°08'0 0.0
2017-Dec-01 14:58N 26°06' W 080°08'0 0.0
2017-Dec-01 14:19N 26°06' W 080°08'0 0.0
2017-Dec-01 13:49N 26°06' W 080°08'0 0.0
2017-Dec-01 13:19N 26°06' W 080°08'0 0.0
2017-Dec-01 12:52N 26°06' W 080°08'0 0.0
2017-Dec-01 12:22N 26°06' W 080°08'0 0.0
2017-Dec-01 11:52N 26°06' W 080°08'0 0.0
2017-Dec-01 11:22N 26°06' W 080°08'0 0.0
2017-Dec-01 10:49N 26°06' W 080°08'0 0.0
2017-Dec-01 10:25N 26°06' W 080°08'0 0.0
2017-Dec-01 09:55N 26°06' W 080°08'0 0.0
2017-Dec-01 09:25N 26°06' W 080°08'0 0.0
2017-Dec-01 08:58N 26°06' W 080°08'0 0.0
2017-Dec-01 08:13N 26°06' W 080°08'0 0.0
2017-Dec-01 07:58N 26°06' W 080°08'0 0.0
2017-Dec-01 07:28N 26°06' W 080°08'0 0.0
2017-Dec-01 06:58N 26°06' W 080°08'0 0.0
2017-Dec-01 06:28N 26°06' W 080°08'0 0.0
2017-Dec-01 05:58N 26°06' W 080°08'0 0.0
2017-Dec-01 05:28N 26°06' W 080°08'0 0.0
2017-Dec-01 04:58N 26°06' W 080°08'0 0.0
2017-Dec-01 04:28N 26°06' W 080°08'0 0.0
2017-Dec-01 03:46N 26°06' W 080°08'0 0.0
2017-Dec-01 03:28N 26°06' W 080°08'0 0.0
2017-Dec-01 02:58N 26°06' W 080°08'0 0.0
2017-Dec-01 02:19N 26°06' W 080°08'0 0.0
2017-Dec-01 01:49N 26°06' W 080°08'0 0.0
2017-Dec-01 01:19N 26°06' W 080°08'0 0.0
2017-Dec-01 00:49N 26°06' W 080°08'0 0.0
2017-Dec-01 00:22N 26°06' W 080°08'0 0.0
2017-Nov-30 23:52N 26°06' W 080°08'0 0.0
2017-Nov-30 23:22N 26°06' W 080°08'0 0.0
2017-Nov-30 22:52N 26°06' W 080°08'0 0.0
2017-Nov-30 22:19N 26°06' W 080°08'0 0.0
2017-Nov-30 21:55N 26°06' W 080°08'0 0.0
2017-Nov-30 21:25N 26°06' W 080°08'0 0.0
2017-Nov-30 20:55N 26°06' W 080°08'0 0.0
2017-Nov-30 20:25N 26°06' W 080°08'0 0.0
2017-Nov-30 19:58N 26°06' W 080°08'0 0.0
2017-Nov-30 19:25N 26°06' W 080°08'0 0.0
2017-Nov-30 18:58N 26°06' W 080°08'0 0.0
2017-Nov-30 18:28N 26°06' W 080°08'0 0.0
2017-Nov-30 17:55N 26°06' W 080°08'0 0.0
2017-Nov-30 17:28N 26°06' W 080°08'0 0.0
2017-Nov-30 16:58N 26°06' W 080°08'0 0.0
2017-Nov-30 16:28N 26°06' W 080°08'0 0.0
2017-Nov-30 15:58N 26°06' W 080°08'0 0.0
2017-Nov-30 15:13N 26°06' W 080°08'0 0.0
2017-Nov-30 14:58N 26°06' W 080°08'0 0.0
2017-Nov-30 14:28N 26°06' W 080°08'0 0.0
2017-Nov-30 13:49N 26°06' W 080°08'0 0.0
2017-Nov-30 13:19N 26°06' W 080°08'0 0.0
2017-Nov-30 12:49N 26°06' W 080°08'0 0.0
2017-Nov-30 12:22N 26°06' W 080°08'0 0.0
2017-Nov-30 11:52N 26°06' W 080°08'0 0.0
2017-Nov-30 11:22N 26°06' W 080°08'0 0.0
2017-Nov-30 10:52N 26°06' W 080°08'0 0.0
2017-Nov-30 10:25N 26°06' W 080°08'0 0.0
2017-Nov-30 09:55N 26°06' W 080°08'0 0.0
2017-Nov-30 09:25N 26°06' W 080°08'0 0.0
2017-Nov-30 08:55N 26°06' W 080°08'0 0.0
2017-Nov-30 08:22N 26°06' W 080°08'0 0.0
2017-Nov-30 07:58N 26°06' W 080°08'0 0.0
2017-Nov-30 07:28N 26°06' W 080°08'0 0.0
2017-Nov-30 06:58N 26°06' W 080°08'0 0.0
2017-Nov-30 06:28N 26°06' W 080°08'0 0.0
2017-Nov-30 05:58N 26°06' W 080°08'0 0.0
2017-Nov-30 05:28N 26°06' W 080°08'0 0.0
2017-Nov-30 04:58N 26°06' W 080°08'0 0.0
2017-Nov-30 04:28N 26°06' W 080°08'0 0.0
2017-Nov-30 03:58N 26°06' W 080°08'0 0.0
2017-Nov-30 03:28N 26°06' W 080°08'0 0.0
2017-Nov-30 02:58N 26°06' W 080°08'0 0.0
2017-Nov-30 02:28N 26°06' W 080°08'0 0.0
2017-Nov-30 01:58N 26°06' W 080°08'0 0.0
2017-Nov-30 01:19N 26°06' W 080°08'0 0.0
2017-Nov-30 00:52N 26°06' W 080°08'0 0.0
2017-Nov-30 00:22N 26°06' W 080°08'0 0.0
2017-Nov-29 23:52N 26°06' W 080°08'0 0.0
2017-Nov-29 23:22N 26°06' W 080°08'0 0.0
2017-Nov-29 22:52N 26°06' W 080°08'0 0.0
2017-Nov-29 22:22N 26°06' W 080°08'0 0.0
2017-Nov-29 21:55N 26°06' W 080°08'0 0.0
2017-Nov-29 21:25N 26°06' W 080°08'0 0.0
2017-Nov-29 20:55N 26°06' W 080°08'0 0.0
2017-Nov-29 20:25N 26°06' W 080°08'0 0.0
2017-Nov-29 19:52N 26°06' W 080°08'0 0.0
2017-Nov-29 19:28N 26°06' W 080°08'0 0.0
2017-Nov-29 18:58N 26°06' W 080°08'0 0.0
2017-Nov-29 18:28N 26°06' W 080°08'0 0.0
2017-Nov-29 17:58N 26°06' W 080°08'0 0.0
2017-Nov-29 17:28N 26°06' W 080°08'0 0.0
2017-Nov-29 16:55N 26°06' W 080°08'0 0.0
2017-Nov-29 16:28N 26°06' W 080°08'0 0.0
2017-Nov-29 15:58N 26°06' W 080°08'0 0.0
2017-Nov-29 15:28N 26°06' W 080°08'0 0.0
2017-Nov-29 14:58N 26°06' W 080°08'0 0.0
2017-Nov-29 14:28N 26°06' W 080°08'0 0.0
2017-Nov-29 13:58N 26°06' W 080°08'0 0.0
2017-Nov-29 13:19N 26°06' W 080°08'0 0.0
2017-Nov-29 12:49N 26°06' W 080°08'0 0.0
2017-Nov-29 12:19N 26°06' W 080°08'0 0.0
2017-Nov-29 11:52N 26°06' W 080°08'0 0.0
2017-Nov-29 11:22N 26°06' W 080°08'0 0.0
2017-Nov-29 10:52N 26°06' W 080°08'0 0.0
2017-Nov-29 10:22N 26°06' W 080°08'0 0.0
2017-Nov-29 09:55N 26°06' W 080°08'0 0.0
2017-Nov-29 09:25N 26°06' W 080°08'0 0.0
2017-Nov-29 08:55N 26°06' W 080°08'0 0.0
2017-Nov-29 08:25N 26°06' W 080°08'0 0.0
2017-Nov-29 07:55N 26°06' W 080°08'0 0.0
2017-Nov-29 07:25N 26°06' W 080°08'0 0.0
2017-Nov-29 06:58N 26°06' W 080°08'0 0.0
2017-Nov-29 06:28N 26°06' W 080°08'0 0.0
2017-Nov-29 05:58N 26°06' W 080°08'0 0.0
2017-Nov-29 05:28N 26°06' W 080°08'0 0.0
2017-Nov-29 04:58N 26°06' W 080°08'0 0.0
2017-Nov-29 04:28N 26°06' W 080°08'0 0.0
2017-Nov-29 03:58N 26°06' W 080°08'0 0.0
2017-Nov-29 03:28N 26°06' W 080°08'0 0.0
2017-Nov-29 02:43N 26°06' W 080°08'0 0.0
2017-Nov-29 02:19N 26°06' W 080°08'0 0.0
2017-Nov-29 01:58N 26°06' W 080°08'0 0.0
2017-Nov-29 01:28N 26°06' W 080°08'0 0.0
2017-Nov-29 00:49N 26°06' W 080°08'0 0.0
2017-Nov-29 00:22N 26°06' W 080°08'0 0.0
2017-Nov-28 23:52N 26°06' W 080°08'0 0.0
2017-Nov-28 23:22N 26°06' W 080°08'0 0.0
2017-Nov-28 22:52N 26°06' W 080°08'0 0.0
2017-Nov-28 22:22N 26°06' W 080°08'0 0.0
2017-Nov-28 21:52N 26°06' W 080°08'0 0.0
2017-Nov-28 21:25N 26°06' W 080°08'0 0.0
2017-Nov-28 20:55N 26°06' W 080°08'0 0.0
2017-Nov-28 20:25N 26°06' W 080°08'0 0.0
2017-Nov-28 19:55N 26°06' W 080°08'0 0.0
2017-Nov-28 19:29N 26°06' W 080°08'0 0.0
2017-Nov-28 18:59N 26°06' W 080°08'0 0.0
2017-Nov-28 18:26N 26°06' W 080°08'0 0.0
2017-Nov-28 17:59N 26°06' W 080°08'0 0.0
2017-Nov-28 17:29N 26°06' W 080°08'0 0.0
2017-Nov-28 16:59N 26°06' W 080°08'0 0.0
2017-Nov-28 16:29N 26°06' W 080°08'0 0.0
2017-Nov-28 15:59N 26°06' W 080°08'0 0.0
2017-Nov-28 14:59N 26°06' W 080°08'0 0.0
2017-Nov-28 14:29N 26°06' W 080°08'0 0.0
2017-Nov-28 13:59N 26°06' W 080°08'0 0.0
2017-Nov-28 13:29N 26°06' W 080°08'0 0.0
2017-Nov-28 12:59N 26°06' W 080°08'0 0.0
2017-Nov-28 12:17N 26°06' W 080°08'0 0.0
2017-Nov-28 11:50N 26°06' W 080°08'0 0.0
2017-Nov-28 11:23N 26°06' W 080°08'0 0.0
2017-Nov-28 10:53N 26°06' W 080°08'0 0.0
2017-Nov-28 10:23N 26°06' W 080°08'0 0.0
2017-Nov-28 09:53N 26°06' W 080°08'0 0.0
2017-Nov-28 09:26N 26°06' W 080°08'0 0.0
2017-Nov-28 08:56N 26°06' W 080°08'0 0.0
2017-Nov-28 08:26N 26°06' W 080°08'0 0.0
2017-Nov-28 07:56N 26°06' W 080°08'0 0.0
2017-Nov-28 07:26N 26°06' W 080°08'0 0.0
2017-Nov-28 06:59N 26°06' W 080°08'0 0.0
2017-Nov-28 06:29N 26°06' W 080°08'0 0.0
2017-Nov-28 05:59N 26°06' W 080°08'0 0.0
2017-Nov-28 05:29N 26°06' W 080°08'0 0.0
2017-Nov-28 04:29N 26°06' W 080°08'0 0.0
2017-Nov-28 03:59N 26°06' W 080°08'0 0.0
2017-Nov-28 03:29N 26°06' W 080°08'0 0.0
2017-Nov-28 02:59N 26°06' W 080°08'0 0.0
2017-Nov-28 02:29N 26°06' W 080°08'0 0.0
2017-Nov-28 01:59N 26°06' W 080°08'0 0.0
2017-Nov-28 01:29N 26°06' W 080°08'0 0.0
2017-Nov-28 00:59N 26°06' W 080°08'0 0.0
2017-Nov-28 00:20N 26°06' W 080°08'0 0.0
2017-Nov-27 23:53N 26°06' W 080°08'0 0.0
2017-Nov-27 23:23N 26°06' W 080°08'0 0.0
2017-Nov-27 22:53N 26°06' W 080°08'0 0.0
2017-Nov-27 22:23N 26°06' W 080°08'0 0.0
2017-Nov-27 21:53N 26°06' W 080°08'0 0.0
2017-Nov-27 21:23N 26°06' W 080°08'0 0.0
2017-Nov-27 20:56N 26°06' W 080°08'0 0.0
2017-Nov-27 20:26N 26°06' W 080°08'0 0.0
2017-Nov-27 19:56N 26°06' W 080°08'0 0.0
2017-Nov-27 19:26N 26°06' W 080°08'  
Track history (hours):
 
Tides and Currents Weather Stations Pressure Air Temp Water Temp Dewpoint Dewpoint Depression Visibility Wind Speed Wind Dir Waves Ship Positions

Two

Last reported at 2017-Dec-07 19:06 UTC. Time now 2017-Dec-15 10:24 UTC.
Position N 26°06' W 080°08'.

Length 23 m.

Type: Sailing vessel. MMSI: 319039100.

Date/timePositionNaut miles runAvg speedWind from/ knotsBaromVisibWave heightAir tempDewpointWater temp
2017-Dec-07 19:06N 26°06' W 080°08'0 0.0
2017-Dec-07 18:51N 26°06' W 080°08'1 1.7
2017-Dec-07 18:30N 26°06' W 080°07'3 5.5
2017-Dec-07 17:57N 26°08' W 080°05'510.1
2017-Dec-07 17:25N 26°14' W 080°04'5 9.9
2017-Dec-07 16:55N 26°19' W 080°04'5 9.0
2017-Dec-07 16:25N 26°23' W 080°03'5 8.6
2017-Dec-07 15:52N 26°28' W 080°03'6 8.5
2017-Dec-07 15:09N 26°34' W 080°02'1 8.8
2017-Dec-07 15:00N 26°35' W 080°02'4 8.7
2017-Dec-07 14:30N 26°39' W 080°01'5 9.0
2017-Dec-07 14:00N 26°44' W 080°01'2 4.0
2017-Dec-07 13:30N 26°46' W 080°03'1 1.5
2017-Dec-07 13:00N 26°45' W 080°03'0 0.0
2017-Dec-07 12:30N 26°45' W 080°03'0 0.0
2017-Dec-07 12:00N 26°45' W 080°03'0 0.0
2017-Dec-07 11:30N 26°45' W 080°03'0 0.0
2017-Dec-07 11:00N 26°45' W 080°03'0 0.0
2017-Dec-07 10:30N 26°45' W 080°03'0 0.0
2017-Dec-07 10:00N 26°45' W 080°03'0 0.0
2017-Dec-07 09:30N 26°45' W 080°03'0 0.0
2017-Dec-07 09:00N 26°45' W 080°03'0 0.0
2017-Dec-07 08:30N 26°45' W 080°03'0 0.0
2017-Dec-07 08:00N 26°45' W 080°03'0 0.0
2017-Dec-07 07:30N 26°45' W 080°03'0 0.0
2017-Dec-07 07:00N 26°45' W 080°03'0 0.0
2017-Dec-07 06:30N 26°45' W 080°03'0 0.0
2017-Dec-07 06:00N 26°45' W 080°03'0 0.0
2017-Dec-07 05:30N 26°45' W 080°03'0 0.0
2017-Dec-07 05:00N 26°45' W 080°03'0 0.0
2017-Dec-07 04:30N 26°45' W 080°03'0 0.0
2017-Dec-07 04:00N 26°45' W 080°03'0 0.0
2017-Dec-07 03:30N 26°45' W 080°03'0 0.0
2017-Dec-07 03:00N 26°45' W 080°03'0 0.0
2017-Dec-07 02:27N 26°45' W 080°03'0 0.0
2017-Dec-07 02:00N 26°45' W 080°03'0 0.0
2017-Dec-07 01:30N 26°45' W 080°03'0 0.0
2017-Dec-07 01:00N 26°45' W 080°03'0 0.0
2017-Dec-07 00:30N 26°45' W 080°03'0 0.0
2017-Dec-07 00:00N 26°45' W 080°03'0 0.0
2017-Dec-06 23:30N 26°45' W 080°03'0 0.0
2017-Dec-06 23:00N 26°45' W 080°03'0 0.0
2017-Dec-06 22:30N 26°45' W 080°03'0 0.0
2017-Dec-06 22:00N 26°45' W 080°03'0 0.0
2017-Dec-06 21:30N 26°45' W 080°03'0 0.0
2017-Dec-06 21:00N 26°45' W 080°03'  
2017-Dec-04 10:24N 26°06' W 080°08'0 0.0
2017-Dec-04 09:57N 26°06' W 080°08'0 0.0
2017-Dec-04 09:24N 26°06' W 080°08'0 0.0
2017-Dec-04 08:57N 26°06' W 080°08'0 0.0
2017-Dec-04 08:27N 26°06' W 080°08'0 0.0
2017-Dec-04 07:57N 26°06' W 080°08'0 0.0
2017-Dec-04 07:27N 26°06' W 080°08'0 0.0
2017-Dec-04 07:00N 26°06' W 080°08'0 0.0
2017-Dec-04 06:30N 26°06' W 080°08'0 0.0
2017-Dec-04 06:00N 26°06' W 080°08'0 0.0
2017-Dec-04 05:30N 26°06' W 080°08'0 0.0
2017-Dec-04 05:00N 26°06' W 080°08'0 0.0
2017-Dec-04 04:30N 26°06' W 080°08'0 0.0
2017-Dec-04 04:00N 26°06' W 080°08'0 0.0
2017-Dec-04 03:30N 26°06' W 080°08'0 0.0
2017-Dec-04 03:00N 26°06' W 080°08'0 0.0
2017-Dec-04 02:30N 26°06' W 080°08'0 0.0
2017-Dec-04 02:00N 26°06' W 080°08'0 0.0
2017-Dec-04 01:30N 26°06' W 080°08'0 0.0
2017-Dec-04 00:51N 26°06' W 080°08'0 0.0
2017-Dec-04 00:21N 26°06' W 080°08'0 0.0
2017-Dec-03 23:54N 26°06' W 080°08'0 0.0
2017-Dec-03 23:24N 26°06' W 080°08'0 0.0
2017-Dec-03 22:54N 26°06' W 080°08'0 0.0
2017-Dec-03 22:24N 26°06' W 080°08'0 0.0
2017-Dec-03 21:54N 26°06' W 080°08'0 0.0
2017-Dec-03 21:24N 26°06' W 080°08'0 0.0
2017-Dec-03 20:57N 26°06' W 080°08'0 0.0
2017-Dec-03 20:27N 26°06' W 080°08'0 0.0
2017-Dec-03 19:57N 26°06' W 080°08'0 0.0
2017-Dec-03 19:27N 26°06' W 080°08'0 0.0
2017-Dec-03 18:57N 26°06' W 080°08'0 0.0
2017-Dec-03 18:30N 26°06' W 080°08'0 0.0
2017-Dec-03 18:00N 26°06' W 080°08'0 0.0
2017-Dec-03 17:30N 26°06' W 080°08'0 0.0
2017-Dec-03 17:00N 26°06' W 080°08'0 0.0
2017-Dec-03 16:30N 26°06' W 080°08'0 0.0
2017-Dec-03 16:00N 26°06' W 080°08'0 0.0
2017-Dec-03 15:30N 26°06' W 080°08'0 0.0
2017-Dec-03 15:00N 26°06' W 080°08'0 0.0
2017-Dec-03 14:30N 26°06' W 080°08'0 0.0
2017-Dec-03 13:51N 26°06' W 080°08'0 0.0
2017-Dec-03 13:30N 26°06' W 080°08'0 0.0
2017-Dec-03 12:51N 26°06' W 080°08'0 0.0
2017-Dec-03 12:21N 26°06' W 080°08'0 0.0
2017-Dec-03 11:51N 26°06' W 080°08'0 0.0
2017-Dec-03 11:25N 26°06' W 080°08'0 0.0
2017-Dec-03 10:55N 26°06' W 080°08'0 0.0
2017-Dec-03 10:25N 26°06' W 080°08'0 0.0
2017-Dec-03 09:55N 26°06' W 080°08'0 0.0
2017-Dec-03 09:25N 26°06' W 080°08'0 0.0
2017-Dec-03 08:58N 26°06' W 080°08'0 0.0
2017-Dec-03 08:28N 26°06' W 080°08'0 0.0
2017-Dec-03 07:58N 26°06' W 080°08'0 0.0
2017-Dec-03 07:28N 26°06' W 080°08'0 0.0
2017-Dec-03 06:58N 26°06' W 080°08'0 0.0
2017-Dec-03 06:28N 26°06' W 080°08'0 0.0
2017-Dec-03 05:58N 26°06' W 080°08'0 0.0
2017-Dec-03 05:16N 26°06' W 080°08'0 0.0
2017-Dec-03 04:58N 26°06' W 080°08'0 0.0
2017-Dec-03 04:28N 26°06' W 080°08'0 0.0
2017-Dec-03 03:58N 26°06' W 080°08'0 0.0
2017-Dec-03 03:28N 26°06' W 080°08'0 0.0
2017-Dec-03 02:49N 26°06' W 080°08'0 0.0
2017-Dec-03 02:19N 26°06' W 080°08'0 0.0
2017-Dec-03 01:52N 26°06' W 080°08'0 0.0
2017-Dec-03 01:22N 26°06' W 080°08'0 0.0
2017-Dec-03 00:52N 26°06' W 080°08'0 0.0
2017-Dec-03 00:22N 26°06' W 080°08'0 0.0
2017-Dec-02 23:52N 26°06' W 080°08'0 0.0
2017-Dec-02 22:25N 26°06' W 080°08'0 0.0
2017-Dec-02 21:55N 26°06' W 080°08'0 0.0
2017-Dec-02 21:25N 26°06' W 080°08'0 0.0
2017-Dec-02 20:58N 26°06' W 080°08'0 0.0
2017-Dec-02 20:28N 26°06' W 080°08'0 0.0
2017-Dec-02 19:58N 26°06' W 080°08'0 0.0
2017-Dec-02 19:25N 26°06' W 080°08'0 0.0
2017-Dec-02 18:58N 26°06' W 080°08'0 0.6
2017-Dec-02 18:28N 26°06' W 080°08'0 0.6
2017-Dec-02 17:55N 26°06' W 080°08'0 0.0
2017-Dec-02 17:28N 26°06' W 080°08'0 0.0
2017-Dec-02 16:58N 26°06' W 080°08'0 0.0
2017-Dec-02 16:28N 26°06' W 080°08'0 0.0
2017-Dec-02 15:58N 26°06' W 080°08'0 0.0
2017-Dec-02 15:28N 26°06' W 080°08'0 0.0
2017-Dec-02 14:58N 26°06' W 080°08'0 0.0
2017-Dec-02 14:19N 26°06' W 080°08'0 0.0
2017-Dec-02 13:49N 26°06' W 080°08'0 0.0
2017-Dec-02 13:22N 26°06' W 080°08'0 0.0
2017-Dec-02 12:52N 26°06' W 080°08'0 0.0
2017-Dec-02 12:22N 26°06' W 080°08'0 0.0
2017-Dec-02 11:52N 26°06' W 080°08'0 0.0
2017-Dec-02 11:22N 26°06' W 080°08'0 0.0
2017-Dec-02 10:55N 26°06' W 080°08'0 0.0
2017-Dec-02 10:22N 26°06' W 080°08'0 0.0
2017-Dec-02 09:55N 26°06' W 080°08'0 0.0
2017-Dec-02 09:25N 26°06' W 080°08'0 0.0
2017-Dec-02 08:55N 26°06' W 080°08'0 0.0
2017-Dec-02 08:28N 26°06' W 080°08'0 0.0
2017-Dec-02 07:52N 26°06' W 080°08'0 0.0
2017-Dec-02 07:28N 26°06' W 080°08'0 0.0
2017-Dec-02 06:58N 26°06' W 080°08'0 0.0
2017-Dec-02 06:28N 26°06' W 080°08'0 0.0
2017-Dec-02 05:58N 26°06' W 080°08'0 0.0
2017-Dec-02 05:28N 26°06' W 080°08'0 0.0
2017-Dec-02 04:58N 26°06' W 080°08'0 0.0
2017-Dec-02 04:28N 26°06' W 080°08'0 0.0
2017-Dec-02 03:58N 26°06' W 080°08'0 0.0
2017-Dec-02 03:28N 26°06' W 080°08'0 0.0
2017-Dec-02 02:49N 26°06' W 080°08'0 0.0
2017-Dec-02 02:19N 26°06' W 080°08'0 0.0
2017-Dec-02 01:49N 26°06' W 080°08'0 0.0
2017-Dec-02 01:22N 26°06' W 080°08'0 0.0
2017-Dec-02 00:52N 26°06' W 080°08'0 0.0
2017-Dec-02 00:22N 26°06' W 080°08'0 0.0
2017-Dec-01 23:52N 26°06' W 080°08'0 0.0
2017-Dec-01 23:22N 26°06' W 080°08'0 0.0
2017-Dec-01 22:55N 26°06' W 080°08'0 0.0
2017-Dec-01 22:25N 26°06' W 080°08'0 0.0
2017-Dec-01 21:55N 26°06' W 080°08'0 0.0
2017-Dec-01 21:25N 26°06' W 080°08'0 0.0
2017-Dec-01 20:55N 26°06' W 080°08'0 0.0
2017-Dec-01 20:28N 26°06' W 080°08'0 0.0
2017-Dec-01 19:58N 26°06' W 080°08'0 0.0
2017-Dec-01 19:28N 26°06' W 080°08'0 0.0
2017-Dec-01 18:58N 26°06' W 080°08'0 0.0
2017-Dec-01 18:28N 26°06' W 080°08'0 0.0
2017-Dec-01 17:58N 26°06' W 080°08'0 0.0
2017-Dec-01 17:25N 26°06' W 080°08'0 0.0
2017-Dec-01 16:58N 26°06' W 080°08'0 0.0
2017-Dec-01 16:28N 26°06' W 080°08'0 0.0
2017-Dec-01 15:46N 26°06' W 080°08'0 0.0
2017-Dec-01 15:28N 26°06' W 080°08'0 0.0
2017-Dec-01 14:58N 26°06' W 080°08'0 0.0
2017-Dec-01 14:19N 26°06' W 080°08'0 0.0
2017-Dec-01 13:49N 26°06' W 080°08'0 0.0
2017-Dec-01 13:19N 26°06' W 080°08'0 0.0
2017-Dec-01 12:52N 26°06' W 080°08'0 0.0
2017-Dec-01 12:22N 26°06' W 080°08'0 0.0
2017-Dec-01 11:52N 26°06' W 080°08'0 0.0
2017-Dec-01 11:22N 26°06' W 080°08'0 0.0
2017-Dec-01 10:49N 26°06' W 080°08'0 0.0
2017-Dec-01 10:25N 26°06' W 080°08'0 0.0
2017-Dec-01 09:55N 26°06' W 080°08'0 0.0
2017-Dec-01 09:25N 26°06' W 080°08'0 0.0
2017-Dec-01 08:58N 26°06' W 080°08'0 0.0
2017-Dec-01 08:13N 26°06' W 080°08'0 0.0
2017-Dec-01 07:58N 26°06' W 080°08'0 0.0
2017-Dec-01 07:28N 26°06' W 080°08'0 0.0
2017-Dec-01 06:58N 26°06' W 080°08'0 0.0
2017-Dec-01 06:28N 26°06' W 080°08'0 0.0
2017-Dec-01 05:58N 26°06' W 080°08'0 0.0
2017-Dec-01 05:28N 26°06' W 080°08'0 0.0
2017-Dec-01 04:58N 26°06' W 080°08'0 0.0
2017-Dec-01 04:28N 26°06' W 080°08'0 0.0
2017-Dec-01 03:46N 26°06' W 080°08'0 0.0
2017-Dec-01 03:28N 26°06' W 080°08'0 0.0
2017-Dec-01 02:58N 26°06' W 080°08'0 0.0
2017-Dec-01 02:19N 26°06' W 080°08'0 0.0
2017-Dec-01 01:49N 26°06' W 080°08'0 0.0
2017-Dec-01 01:19N 26°06' W 080°08'0 0.0
2017-Dec-01 00:49N 26°06' W 080°08'0 0.0
2017-Dec-01 00:22N 26°06' W 080°08'0 0.0
2017-Nov-30 23:52N 26°06' W 080°08'0 0.0
2017-Nov-30 23:22N 26°06' W 080°08'0 0.0
2017-Nov-30 22:52N 26°06' W 080°08'0 0.0
2017-Nov-30 22:19N 26°06' W 080°08'0 0.0
2017-Nov-30 21:55N 26°06' W 080°08'0 0.0
2017-Nov-30 21:25N 26°06' W 080°08'0 0.0
2017-Nov-30 20:55N 26°06' W 080°08'0 0.0
2017-Nov-30 20:25N 26°06' W 080°08'0 0.0
2017-Nov-30 19:58N 26°06' W 080°08'0 0.0
2017-Nov-30 19:25N 26°06' W 080°08'0 0.0
2017-Nov-30 18:58N 26°06' W 080°08'0 0.0
2017-Nov-30 18:28N 26°06' W 080°08'0 0.0
2017-Nov-30 17:55N 26°06' W 080°08'0 0.0
2017-Nov-30 17:28N 26°06' W 080°08'0 0.0
2017-Nov-30 16:58N 26°06' W 080°08'0 0.0
2017-Nov-30 16:28N 26°06' W 080°08'0 0.0
2017-Nov-30 15:58N 26°06' W 080°08'0 0.0
2017-Nov-30 15:13N 26°06' W 080°08'0 0.0
2017-Nov-30 14:58N 26°06' W 080°08'0 0.0
2017-Nov-30 14:28N 26°06' W 080°08'0 0.0
2017-Nov-30 13:49N 26°06' W 080°08'0 0.0
2017-Nov-30 13:19N 26°06' W 080°08'0 0.0
2017-Nov-30 12:49N 26°06' W 080°08'0 0.0
2017-Nov-30 12:22N 26°06' W 080°08'0 0.0
2017-Nov-30 11:52N 26°06' W 080°08'0 0.0
2017-Nov-30 11:22N 26°06' W 080°08'0 0.0
2017-Nov-30 10:52N 26°06' W 080°08'0 0.0
2017-Nov-30 10:25N 26°06' W 080°08'0 0.0
2017-Nov-30 09:55N 26°06' W 080°08'0 0.0
2017-Nov-30 09:25N 26°06' W 080°08'0 0.0
2017-Nov-30 08:55N 26°06' W 080°08'0 0.0
2017-Nov-30 08:22N 26°06' W 080°08'0 0.0
2017-Nov-30 07:58N 26°06' W 080°08'0 0.0
2017-Nov-30 07:28N 26°06' W 080°08'0 0.0
2017-Nov-30 06:58N 26°06' W 080°08'0 0.0
2017-Nov-30 06:28N 26°06' W 080°08'0 0.0
2017-Nov-30 05:58N 26°06' W 080°08'0 0.0
2017-Nov-30 05:28N 26°06' W 080°08'0 0.0
2017-Nov-30 04:58N 26°06' W 080°08'0 0.0
2017-Nov-30 04:28N 26°06' W 080°08'0 0.0
2017-Nov-30 03:58N 26°06' W 080°08'0 0.0
2017-Nov-30 03:28N 26°06' W 080°08'0 0.0
2017-Nov-30 02:58N 26°06' W 080°08'0 0.0
2017-Nov-30 02:28N 26°06' W 080°08'0 0.0
2017-Nov-30 01:58N 26°06' W 080°08'0 0.0
2017-Nov-30 01:19N 26°06' W 080°08'0 0.0
2017-Nov-30 00:52N 26°06' W 080°08'0 0.0
2017-Nov-30 00:22N 26°06' W 080°08'0 0.0
2017-Nov-29 23:52N 26°06' W 080°08'0 0.0
2017-Nov-29 23:22N 26°06' W 080°08'0 0.0
2017-Nov-29 22:52N 26°06' W 080°08'0 0.0
2017-Nov-29 22:22N 26°06' W 080°08'0 0.0
2017-Nov-29 21:55N 26°06' W 080°08'0 0.0
2017-Nov-29 21:25N 26°06' W 080°08'0 0.0
2017-Nov-29 20:55N 26°06' W 080°08'0 0.0
2017-Nov-29 20:25N 26°06' W 080°08'0 0.0
2017-Nov-29 19:52N 26°06' W 080°08'0 0.0
2017-Nov-29 19:28N 26°06' W 080°08'0 0.0
2017-Nov-29 18:58N 26°06' W 080°08'0 0.0
2017-Nov-29 18:28N 26°06' W 080°08'0 0.0
2017-Nov-29 17:58N 26°06' W 080°08'0 0.0
2017-Nov-29 17:28N 26°06' W 080°08'0 0.0
2017-Nov-29 16:55N 26°06' W 080°08'0 0.0
2017-Nov-29 16:28N 26°06' W 080°08'0 0.0
2017-Nov-29 15:58N 26°06' W 080°08'0 0.0
2017-Nov-29 15:28N 26°06' W 080°08'0 0.0
2017-Nov-29 14:58N 26°06' W 080°08'0 0.0
2017-Nov-29 14:28N 26°06' W 080°08'0 0.0
2017-Nov-29 13:58N 26°06' W 080°08'0 0.0
2017-Nov-29 13:19N 26°06' W 080°08'0 0.0
2017-Nov-29 12:49N 26°06' W 080°08'0 0.0
2017-Nov-29 12:19N 26°06' W 080°08'0 0.0
2017-Nov-29 11:52N 26°06' W 080°08'0 0.0
2017-Nov-29 11:22N 26°06' W 080°08'0 0.0
2017-Nov-29 10:52N 26°06' W 080°08'0 0.0
2017-Nov-29 10:22N 26°06' W 080°08'0 0.0
2017-Nov-29 09:55N 26°06' W 080°08'0 0.0
2017-Nov-29 09:25N 26°06' W 080°08'0 0.0
2017-Nov-29 08:55N 26°06' W 080°08'0 0.0
2017-Nov-29 08:25N 26°06' W 080°08'0 0.0
2017-Nov-29 07:55N 26°06' W 080°08'0 0.0
2017-Nov-29 07:25N 26°06' W 080°08'0 0.0
2017-Nov-29 06:58N 26°06' W 080°08'0 0.0
2017-Nov-29 06:28N 26°06' W 080°08'0 0.0
2017-Nov-29 05:58N 26°06' W 080°08'0 0.0
2017-Nov-29 05:28N 26°06' W 080°08'0 0.0
2017-Nov-29 04:58N 26°06' W 080°08'0 0.0
2017-Nov-29 04:28N 26°06' W 080°08'0 0.0
2017-Nov-29 03:58N 26°06' W 080°08'0 0.0
2017-Nov-29 03:28N 26°06' W 080°08'0 0.0
2017-Nov-29 02:43N 26°06' W 080°08'0 0.0
2017-Nov-29 02:19N 26°06' W 080°08'0 0.0
2017-Nov-29 01:58N 26°06' W 080°08'0 0.0
2017-Nov-29 01:28N 26°06' W 080°08'0 0.0
2017-Nov-29 00:49N 26°06' W 080°08'0 0.0
2017-Nov-29 00:22N 26°06' W 080°08'0 0.0
2017-Nov-28 23:52N 26°06' W 080°08'0 0.0
2017-Nov-28 23:22N 26°06' W 080°08'0 0.0
2017-Nov-28 22:52N 26°06' W 080°08'0 0.0
2017-Nov-28 22:22N 26°06' W 080°08'0 0.0
2017-Nov-28 21:52N 26°06' W 080°08'0 0.0
2017-Nov-28 21:25N 26°06' W 080°08'0 0.0
2017-Nov-28 20:55N 26°06' W 080°08'0 0.0
2017-Nov-28 20:25N 26°06' W 080°08'0 0.0
2017-Nov-28 19:55N 26°06' W 080°08'0 0.0
2017-Nov-28 19:29N 26°06' W 080°08'0 0.0
2017-Nov-28 18:59N 26°06' W 080°08'0 0.0
2017-Nov-28 18:26N 26°06' W 080°08'0 0.0
2017-Nov-28 17:59N 26°06' W 080°08'0 0.0
2017-Nov-28 17:29N 26°06' W 080°08'0 0.0
2017-Nov-28 16:59N 26°06' W 080°08'0 0.0
2017-Nov-28 16:29N 26°06' W 080°08'0 0.0
2017-Nov-28 15:59N 26°06' W 080°08'0 0.0
2017-Nov-28 14:59N 26°06' W 080°08'0 0.0
2017-Nov-28 14:29N 26°06' W 080°08'0 0.0
2017-Nov-28 13:59N 26°06' W 080°08'0 0.0
2017-Nov-28 13:29N 26°06' W 080°08'0 0.0
2017-Nov-28 12:59N 26°06' W 080°08'0 0.0
2017-Nov-28 12:17N 26°06' W 080°08'0 0.0
2017-Nov-28 11:50N 26°06' W 080°08'0 0.0
2017-Nov-28 11:23N 26°06' W 080°08'0 0.0
2017-Nov-28 10:53N 26°06' W 080°08'0 0.0
2017-Nov-28 10:23N 26°06' W 080°08'0 0.0
2017-Nov-28 09:53N 26°06' W 080°08'0 0.0
2017-Nov-28 09:26N 26°06' W 080°08'0 0.0
2017-Nov-28 08:56N 26°06' W 080°08'0 0.0
2017-Nov-28 08:26N 26°06' W 080°08'0 0.0
2017-Nov-28 07:56N 26°06' W 080°08'0 0.0
2017-Nov-28 07:26N 26°06' W 080°08'0 0.0
2017-Nov-28 06:59N 26°06' W 080°08'0 0.0
2017-Nov-28 06:29N 26°06' W 080°08'0 0.0
2017-Nov-28 05:59N 26°06' W 080°08'0 0.0
2017-Nov-28 05:29N 26°06' W 080°08'0 0.0
2017-Nov-28 04:29N 26°06' W 080°08'0 0.0
2017-Nov-28 03:59N 26°06' W 080°08'0 0.0
2017-Nov-28 03:29N 26°06' W 080°08'0 0.0
2017-Nov-28 02:59N 26°06' W 080°08'0 0.0
2017-Nov-28 02:29N 26°06' W 080°08'0 0.0
2017-Nov-28 01:59N 26°06' W 080°08'0 0.0
2017-Nov-28 01:29N 26°06' W 080°08'0 0.0
2017-Nov-28 00:59N 26°06' W 080°08'0 0.0
2017-Nov-28 00:20N 26°06' W 080°08'0 0.0
2017-Nov-27 23:53N 26°06' W 080°08'0 0.0
2017-Nov-27 23:23N 26°06' W 080°08'0 0.0
2017-Nov-27 22:53N 26°06' W 080°08'0 0.0
2017-Nov-27 22:23N 26°06' W 080°08'0 0.0
2017-Nov-27 21:53N 26°06' W 080°08'0 0.0
2017-Nov-27 21:23N 26°06' W 080°08'0 0.0
2017-Nov-27 20:56N 26°06' W 080°08'0 0.0
2017-Nov-27 20:26N 26°06' W 080°08'0 0.0
2017-Nov-27 19:56N 26°06' W 080°08'0 0.0
2017-Nov-27 19:26N 26°06' W 080°08'  

Dump ship's entire track history